sensor_id;sensor_type;location;lat;lon;timestamp;temperature;humidity
63966;DHT22;50151;52.030;5.350;2024-01-16T01:54:06;-0.10;99.90
63966;DHT22;50151;52.030;5.350;2024-01-16T01:56:33;-0.10;99.90
63966;DHT22;50151;52.030;5.350;2024-01-16T01:59:00;-0.10;99.90
63966;DHT22;50151;52.030;5.350;2024-01-16T02:01:29;-0.10;99.90
63966;DHT22;50151;52.030;5.350;2024-01-16T02:03:59;0.00;99.90
63966;DHT22;50151;52.030;5.350;2024-01-16T02:06:26;0.10;99.90
63966;DHT22;50151;52.030;5.350;2024-01-16T02:08:53;0.10;99.90
63966;DHT22;50151;52.030;5.350;2024-01-16T02:11:21;0.10;99.90
63966;DHT22;50151;52.030;5.350;2024-01-16T02:13:47;0.10;99.90
63966;DHT22;50151;52.030;5.350;2024-01-16T02:16:21;0.20;99.90
63966;DHT22;50151;52.030;5.350;2024-01-16T02:18:49;0.20;99.90
63966;DHT22;50151;52.030;5.350;2024-01-16T02:21:19;0.30;99.90
63966;DHT22;50151;52.030;5.350;2024-01-16T02:23:47;0.30;99.90
63966;DHT22;50151;52.030;5.350;2024-01-16T02:26:14;0.30;99.90
63966;DHT22;50151;52.030;5.350;2024-01-16T02:28:42;0.30;99.90
63966;DHT22;50151;52.030;5.350;2024-01-16T02:31:09;0.40;99.90
63966;DHT22;50151;52.030;5.350;2024-01-16T02:33:36;0.40;99.90
63966;DHT22;50151;52.030;5.350;2024-01-16T02:36:03;0.40;99.90
63966;DHT22;50151;52.030;5.350;2024-01-16T02:38:30;0.40;99.90
63966;DHT22;50151;52.030;5.350;2024-01-16T02:40:57;0.40;99.90
63966;DHT22;50151;52.030;5.350;2024-01-16T02:43:24;0.40;99.90
63966;DHT22;50151;52.030;5.350;2024-01-16T02:45:53;0.50;99.90
63966;DHT22;50151;52.030;5.350;2024-01-16T02:48:19;0.50;99.90
63966;DHT22;50151;52.030;5.350;2024-01-16T02:50:47;0.40;99.90
63966;DHT22;50151;52.030;5.350;2024-01-16T02:53:14;0.40;99.90
63966;DHT22;50151;52.030;5.350;2024-01-16T02:55:41;0.40;99.90
63966;DHT22;50151;52.030;5.350;2024-01-16T02:58:08;0.40;99.90
63966;DHT22;50151;52.030;5.350;2024-01-16T03:00:35;0.40;99.90
63966;DHT22;50151;52.030;5.350;2024-01-16T03:03:02;0.40;99.90
63966;DHT22;50151;52.030;5.350;2024-01-16T03:05:28;0.40;99.90
63966;DHT22;50151;52.030;5.350;2024-01-16T03:07:55;0.40;99.90
63966;DHT22;50151;52.030;5.350;2024-01-16T03:10:22;0.30;99.90
63966;DHT22;50151;52.030;5.350;2024-01-16T03:12:49;0.40;99.90
63966;DHT22;50151;52.030;5.350;2024-01-16T03:15:15;0.40;99.90
63966;DHT22;50151;52.030;5.350;2024-01-16T03:17:42;0.40;99.90
63966;DHT22;50151;52.030;5.350;2024-01-16T03:20:09;0.40;99.90
63966;DHT22;50151;52.030;5.350;2024-01-16T03:22:37;0.40;99.90
63966;DHT22;50151;52.030;5.350;2024-01-16T03:25:03;0.40;99.90
63966;DHT22;50151;52.030;5.350;2024-01-16T03:27:30;0.40;99.90
63966;DHT22;50151;52.030;5.350;2024-01-16T03:29:57;0.40;99.90
63966;DHT22;50151;52.030;5.350;2024-01-16T03:32:24;0.40;99.90
63966;DHT22;50151;52.030;5.350;2024-01-16T03:34:51;0.40;99.90
63966;DHT22;50151;52.030;5.350;2024-01-16T03:37:17;0.40;99.90
63966;DHT22;50151;52.030;5.350;2024-01-16T03:39:44;0.40;99.90
63966;DHT22;50151;52.030;5.350;2024-01-16T03:42:11;0.40;99.90
63966;DHT22;50151;52.030;5.350;2024-01-16T03:44:39;0.40;99.90
63966;DHT22;50151;52.030;5.350;2024-01-16T03:47:08;0.40;99.90
63966;DHT22;50151;52.030;5.350;2024-01-16T03:49:35;0.40;99.90
63966;DHT22;50151;52.030;5.350;2024-01-16T03:52:02;0.40;99.90
63966;DHT22;50151;52.030;5.350;2024-01-16T03:54:28;0.40;99.90
63966;DHT22;50151;52.030;5.350;2024-01-16T03:56:56;0.40;99.90
63966;DHT22;50151;52.030;5.350;2024-01-16T03:59:22;0.40;99.90
63966;DHT22;50151;52.030;5.350;2024-01-16T04:01:50;0.40;99.90
63966;DHT22;50151;52.030;5.350;2024-01-16T04:04:16;0.40;99.90
63966;DHT22;50151;52.030;5.350;2024-01-16T04:06:43;0.30;99.90
63966;DHT22;50151;52.030;5.350;2024-01-16T04:09:10;0.30;99.90
63966;DHT22;50151;52.030;5.350;2024-01-16T04:11:37;0.30;99.90
63966;DHT22;50151;52.030;5.350;2024-01-16T04:14:04;0.30;99.90
63966;DHT22;50151;52.030;5.350;2024-01-16T04:16:31;0.30;99.90
63966;DHT22;50151;52.030;5.350;2024-01-16T04:18:58;0.30;99.90
63966;DHT22;50151;52.030;5.350;2024-01-16T04:21:26;0.30;99.90
63966;DHT22;50151;52.030;5.350;2024-01-16T04:23:52;0.30;99.90
63966;DHT22;50151;52.030;5.350;2024-01-16T04:26:19;0.30;99.90
63966;DHT22;50151;52.030;5.350;2024-01-16T04:28:46;0.30;99.90
63966;DHT22;50151;52.030;5.350;2024-01-16T04:31:13;0.30;99.90
63966;DHT22;50151;52.030;5.350;2024-01-16T04:33:40;0.30;99.90
63966;DHT22;50151;52.030;5.350;2024-01-16T04:36:07;0.30;99.90
63966;DHT22;50151;52.030;5.350;2024-01-16T04:38:34;0.30;99.90
63966;DHT22;50151;52.030;5.350;2024-01-16T04:41:02;0.30;99.90
63966;DHT22;50151;52.030;5.350;2024-01-16T04:43:29;0.40;99.90
63966;DHT22;50151;52.030;5.350;2024-01-16T04:45:55;0.40;99.90
63966;DHT22;50151;52.030;5.350;2024-01-16T04:48:23;0.30;99.90
63966;DHT22;50151;52.030;5.350;2024-01-16T04:50:50;0.40;99.90
63966;DHT22;50151;52.030;5.350;2024-01-16T04:53:17;0.40;99.90
63966;DHT22;50151;52.030;5.350;2024-01-16T04:55:44;0.40;99.90
63966;DHT22;50151;52.030;5.350;2024-01-16T04:58:11;0.40;99.90
63966;DHT22;50151;52.030;5.350;2024-01-16T05:00:37;0.40;99.90
63966;DHT22;50151;52.030;5.350;2024-01-16T05:03:04;0.40;99.90
63966;DHT22;50151;52.030;5.350;2024-01-16T05:05:32;0.40;99.90
63966;DHT22;50151;52.030;5.350;2024-01-16T05:08:01;0.50;99.90
63966;DHT22;50151;52.030;5.350;2024-01-16T05:10:28;0.50;99.90
63966;DHT22;50151;52.030;5.350;2024-01-16T05:12:55;0.50;99.90
63966;DHT22;50151;52.030;5.350;2024-01-16T05:15:22;0.50;99.90
63966;DHT22;50151;52.030;5.350;2024-01-16T05:17:49;0.50;99.90
63966;DHT22;50151;52.030;5.350;2024-01-16T05:20:16;0.50;99.90
63966;DHT22;50151;52.030;5.350;2024-01-16T05:22:43;0.50;99.90
63966;DHT22;50151;52.030;5.350;2024-01-16T05:25:09;0.50;99.90
63966;DHT22;50151;52.030;5.350;2024-01-16T05:27:36;0.50;99.90
63966;DHT22;50151;52.030;5.350;2024-01-16T05:30:03;0.50;99.90
63966;DHT22;50151;52.030;5.350;2024-01-16T05:32:30;0.50;99.90
63966;DHT22;50151;52.030;5.350;2024-01-16T05:34:57;0.50;99.90
63966;DHT22;50151;52.030;5.350;2024-01-16T05:37:24;0.50;99.90
63966;DHT22;50151;52.030;5.350;2024-01-16T05:39:51;0.50;99.90
63966;DHT22;50151;52.030;5.350;2024-01-16T05:42:17;0.50;99.90
63966;DHT22;50151;52.030;5.350;2024-01-16T05:44:44;0.50;99.90
63966;DHT22;50151;52.030;5.350;2024-01-16T05:47:11;0.50;99.90
63966;DHT22;50151;52.030;5.350;2024-01-16T05:49:38;0.50;99.90
63966;DHT22;50151;52.030;5.350;2024-01-16T05:52:05;0.50;99.90
63966;DHT22;50151;52.030;5.350;2024-01-16T05:54:32;0.60;99.90
63966;DHT22;50151;52.030;5.350;2024-01-16T05:56:58;0.60;99.90
63966;DHT22;50151;52.030;5.350;2024-01-16T05:59:25;0.60;99.90
63966;DHT22;50151;52.030;5.350;2024-01-16T06:01:52;0.60;99.90
63966;DHT22;50151;52.030;5.350;2024-01-16T06:04:19;0.60;99.90
63966;DHT22;50151;52.030;5.350;2024-01-16T06:06:45;0.60;99.90
63966;DHT22;50151;52.030;5.350;2024-01-16T06:09:14;0.60;99.90
63966;DHT22;50151;52.030;5.350;2024-01-16T06:11:41;0.60;99.90
63966;DHT22;50151;52.030;5.350;2024-01-16T06:14:08;0.60;99.90
63966;DHT22;50151;52.030;5.350;2024-01-16T06:16:36;0.60;99.90
63966;DHT22;50151;52.030;5.350;2024-01-16T06:19:03;0.60;99.90
63966;DHT22;50151;52.030;5.350;2024-01-16T06:21:31;0.60;99.90
63966;DHT22;50151;52.030;5.350;2024-01-16T06:23:58;0.60;99.90
63966;DHT22;50151;52.030;5.350;2024-01-16T06:26:25;0.60;99.90
63966;DHT22;50151;52.030;5.350;2024-01-16T06:28:52;0.60;99.90
63966;DHT22;50151;52.030;5.350;2024-01-16T06:31:19;0.70;99.90
63966;DHT22;50151;52.030;5.350;2024-01-16T06:33:45;0.60;99.90
63966;DHT22;50151;52.030;5.350;2024-01-16T06:36:12;0.60;99.90
63966;DHT22;50151;52.030;5.350;2024-01-16T06:38:39;0.60;99.90
63966;DHT22;50151;52.030;5.350;2024-01-16T06:41:07;0.60;99.90
63966;DHT22;50151;52.030;5.350;2024-01-16T06:43:35;0.60;99.90
63966;DHT22;50151;52.030;5.350;2024-01-16T06:46:01;0.60;99.90
63966;DHT22;50151;52.030;5.350;2024-01-16T06:48:28;0.60;99.90
63966;DHT22;50151;52.030;5.350;2024-01-16T06:50:55;0.60;99.90
63966;DHT22;50151;52.030;5.350;2024-01-16T06:53:22;0.60;99.90
63966;DHT22;50151;52.030;5.350;2024-01-16T06:55:49;0.70;99.90
63966;DHT22;50151;52.030;5.350;2024-01-16T06:58:16;0.60;99.90
63966;DHT22;50151;52.030;5.350;2024-01-16T07:00:43;0.70;99.90
63966;DHT22;50151;52.030;5.350;2024-01-16T07:03:10;0.70;99.90
63966;DHT22;50151;52.030;5.350;2024-01-16T07:05:37;0.70;99.90
63966;DHT22;50151;52.030;5.350;2024-01-16T07:08:04;0.70;99.90
63966;DHT22;50151;52.030;5.350;2024-01-16T07:10:31;0.70;99.90
63966;DHT22;50151;52.030;5.350;2024-01-16T07:12:58;0.70;99.90
63966;DHT22;50151;52.030;5.350;2024-01-16T07:15:25;0.60;99.90
63966;DHT22;50151;52.030;5.350;2024-01-16T07:17:52;0.60;99.90
63966;DHT22;50151;52.030;5.350;2024-01-16T07:20:19;0.60;99.90
63966;DHT22;50151;52.030;5.350;2024-01-16T07:22:46;0.70;99.90
63966;DHT22;50151;52.030;5.350;2024-01-16T07:25:13;0.60;99.90
63966;DHT22;50151;52.030;5.350;2024-01-16T07:27:40;0.70;99.90
63966;DHT22;50151;52.030;5.350;2024-01-16T07:30:09;0.70;99.90
63966;DHT22;50151;52.030;5.350;2024-01-16T07:32:36;0.60;99.90
63966;DHT22;50151;52.030;5.350;2024-01-16T07:35:03;0.60;99.90
63966;DHT22;50151;52.030;5.350;2024-01-16T07:37:31;0.60;99.90
63966;DHT22;50151;52.030;5.350;2024-01-16T07:39:57;0.60;99.90
63966;DHT22;50151;52.030;5.350;2024-01-16T07:42:24;0.60;99.90
63966;DHT22;50151;52.030;5.350;2024-01-16T07:44:52;0.50;99.90
63966;DHT22;50151;52.030;5.350;2024-01-16T07:47:18;0.50;99.90
63966;DHT22;50151;52.030;5.350;2024-01-16T07:49:45;0.60;99.90
63966;DHT22;50151;52.030;5.350;2024-01-16T07:52:12;0.50;99.90
63966;DHT22;50151;52.030;5.350;2024-01-16T07:54:39;0.60;99.90
63966;DHT22;50151;52.030;5.350;2024-01-16T07:57:06;0.60;99.90
63966;DHT22;50151;52.030;5.350;2024-01-16T07:59:33;0.60;99.90
63966;DHT22;50151;52.030;5.350;2024-01-16T08:02:00;0.60;99.90
63966;DHT22;50151;52.030;5.350;2024-01-16T08:04:26;0.70;99.90
63966;DHT22;50151;52.030;5.350;2024-01-16T08:06:53;0.60;99.90
63966;DHT22;50151;52.030;5.350;2024-01-16T08:09:21;0.60;99.90
63966;DHT22;50151;52.030;5.350;2024-01-16T08:11:48;0.60;99.90
63966;DHT22;50151;52.030;5.350;2024-01-16T08:14:15;0.60;99.90
63966;DHT22;50151;52.030;5.350;2024-01-16T08:16:42;0.60;99.90
63966;DHT22;50151;52.030;5.350;2024-01-16T08:19:09;0.70;99.90
63966;DHT22;50151;52.030;5.350;2024-01-16T08:21:36;0.70;99.90
63966;DHT22;50151;52.030;5.350;2024-01-16T08:24:03;0.70;99.90
63966;DHT22;50151;52.030;5.350;2024-01-16T08:26:30;0.70;99.90
63966;DHT22;50151;52.030;5.350;2024-01-16T08:28:58;0.70;99.90
63966;DHT22;50151;52.030;5.350;2024-01-16T08:31:25;0.70;99.90
63966;DHT22;50151;52.030;5.350;2024-01-16T08:33:52;0.60;99.90
63966;DHT22;50151;52.030;5.350;2024-01-16T08:36:22;0.70;99.90
63966;DHT22;50151;52.030;5.350;2024-01-16T08:38:49;0.70;99.90
63966;DHT22;50151;52.030;5.350;2024-01-16T08:41:17;0.70;99.90
63966;DHT22;50151;52.030;5.350;2024-01-16T08:43:44;0.80;99.90
63966;DHT22;50151;52.030;5.350;2024-01-16T08:46:11;0.70;99.90
63966;DHT22;50151;52.030;5.350;2024-01-16T08:48:37;0.80;99.90
63966;DHT22;50151;52.030;5.350;2024-01-16T08:51:08;0.70;99.90
63966;DHT22;50151;52.030;5.350;2024-01-16T08:53:38;0.80;99.90
63966;DHT22;50151;52.030;5.350;2024-01-16T08:56:05;0.70;99.90
63966;DHT22;50151;52.030;5.350;2024-01-16T08:58:35;0.70;99.90
63966;DHT22;50151;52.030;5.350;2024-01-16T09:01:05;0.70;99.90
63966;DHT22;50151;52.030;5.350;2024-01-16T09:03:33;0.70;99.90
63966;DHT22;50151;52.030;5.350;2024-01-16T09:06:00;0.70;99.90
63966;DHT22;50151;52.030;5.350;2024-01-16T09:08:28;0.70;99.90
63966;DHT22;50151;52.030;5.350;2024-01-16T09:10:56;0.80;99.90
63966;DHT22;50151;52.030;5.350;2024-01-16T09:13:23;0.80;99.90
63966;DHT22;50151;52.030;5.350;2024-01-16T09:15:50;0.80;99.90
63966;DHT22;50151;52.030;5.350;2024-01-16T09:18:17;0.90;99.90
63966;DHT22;50151;52.030;5.350;2024-01-16T09:20:44;0.80;99.90
63966;DHT22;50151;52.030;5.350;2024-01-16T09:23:11;0.90;99.90
63966;DHT22;50151;52.030;5.350;2024-01-16T09:25:39;0.90;99.90
63966;DHT22;50151;52.030;5.350;2024-01-16T09:28:06;0.90;99.90
63966;DHT22;50151;52.030;5.350;2024-01-16T09:30:33;0.90;99.90
63966;DHT22;50151;52.030;5.350;2024-01-16T09:33:00;1.00;99.90
63966;DHT22;50151;52.030;5.350;2024-01-16T09:35:28;1.00;99.90
63966;DHT22;50151;52.030;5.350;2024-01-16T09:37:54;1.00;99.90
63966;DHT22;50151;52.030;5.350;2024-01-16T09:40:21;1.10;99.90
63966;DHT22;50151;52.030;5.350;2024-01-16T09:42:48;1.00;99.90
63966;DHT22;50151;52.030;5.350;2024-01-16T09:45:19;1.00;99.90
63966;DHT22;50151;52.030;5.350;2024-01-16T09:47:49;1.10;99.90
63966;DHT22;50151;52.030;5.350;2024-01-16T09:50:19;1.10;99.90
63966;DHT22;50151;52.030;5.350;2024-01-16T09:52:47;1.10;99.90
63966;DHT22;50151;52.030;5.350;2024-01-16T09:55:15;1.00;99.90
63966;DHT22;50151;52.030;5.350;2024-01-16T09:57:45;1.10;99.90
63966;DHT22;50151;52.030;5.350;2024-01-16T10:00:13;1.10;99.90
63966;DHT22;50151;52.030;5.350;2024-01-16T10:02:41;1.10;99.90
63966;DHT22;50151;52.030;5.350;2024-01-16T10:05:10;1.30;99.90
63966;DHT22;50151;52.030;5.350;2024-01-16T10:07:38;1.30;99.90
63966;DHT22;50151;52.030;5.350;2024-01-16T10:10:06;1.20;99.90
63966;DHT22;50151;52.030;5.350;2024-01-16T10:12:33;1.30;99.90
63966;DHT22;50151;52.030;5.350;2024-01-16T10:15:00;1.30;99.90
63966;DHT22;50151;52.030;5.350;2024-01-16T10:17:41;1.30;99.90
63966;DHT22;50151;52.030;5.350;2024-01-16T10:20:10;1.30;99.90
63966;DHT22;50151;52.030;5.350;2024-01-16T10:22:41;1.30;99.90
63966;DHT22;50151;52.030;5.350;2024-01-16T10:25:12;1.20;99.90
63966;DHT22;50151;52.030;5.350;2024-01-16T10:27:43;1.30;99.90
63966;DHT22;50151;52.030;5.350;2024-01-16T10:30:10;1.30;99.90
63966;DHT22;50151;52.030;5.350;2024-01-16T10:32:41;1.30;99.90
63966;DHT22;50151;52.030;5.350;2024-01-16T10:35:13;1.40;99.90
63966;DHT22;50151;52.030;5.350;2024-01-16T10:37:52;1.40;99.90
63966;DHT22;50151;52.030;5.350;2024-01-16T10:40:24;1.50;99.90
63966;DHT22;50151;52.030;5.350;2024-01-16T10:42:59;1.60;99.90
63966;DHT22;50151;52.030;5.350;2024-01-16T10:45:27;1.60;99.90
63966;DHT22;50151;52.030;5.350;2024-01-16T10:48:08;1.70;99.90
63966;DHT22;50151;52.030;5.350;2024-01-16T10:50:37;1.80;99.90
63966;DHT22;50151;52.030;5.350;2024-01-16T10:53:06;1.90;99.90
63966;DHT22;50151;52.030;5.350;2024-01-16T10:55:52;2.00;99.90
63966;DHT22;50151;52.030;5.350;2024-01-16T10:58:22;2.10;99.90
63966;DHT22;50151;52.030;5.350;2024-01-16T11:00:53;2.10;99.90
63966;DHT22;50151;52.030;5.350;2024-01-16T11:06:15;2.20;99.90
63966;DHT22;50151;52.030;5.350;2024-01-16T11:08:46;2.20;99.90
63966;DHT22;50151;52.030;5.350;2024-01-16T11:11:14;2.20;99.90
63966;DHT22;50151;52.030;5.350;2024-01-16T11:13:42;2.40;99.90
63966;DHT22;50151;52.030;5.350;2024-01-16T11:16:11;2.40;99.90
63966;DHT22;50151;52.030;5.350;2024-01-16T11:18:38;2.30;99.90
63966;DHT22;50151;52.030;5.350;2024-01-16T11:21:08;2.30;99.90
63966;DHT22;50151;52.030;5.350;2024-01-16T11:23:42;2.30;99.90
63966;DHT22;50151;52.030;5.350;2024-01-16T11:26:28;2.40;99.90
63966;DHT22;50151;52.030;5.350;2024-01-16T11:28:57;2.50;99.90
63966;DHT22;50151;52.030;5.350;2024-01-16T11:31:35;2.30;99.90
63966;DHT22;50151;52.030;5.350;2024-01-16T11:34:02;2.40;99.90
63966;DHT22;50151;52.030;5.350;2024-01-16T11:36:47;2.50;99.90
63966;DHT22;50151;52.030;5.350;2024-01-16T11:39:23;2.50;99.90
63966;DHT22;50151;52.030;5.350;2024-01-16T11:41:56;2.40;99.90
63966;DHT22;50151;52.030;5.350;2024-01-16T11:44:49;2.50;99.90
63966;DHT22;50151;52.030;5.350;2024-01-16T11:47:22;2.50;99.90
63966;DHT22;50151;52.030;5.350;2024-01-16T11:49:52;2.80;99.90
63966;DHT22;50151;52.030;5.350;2024-01-16T11:52:40;2.70;99.90
63966;DHT22;50151;52.030;5.350;2024-01-16T11:55:28;2.70;99.90
63966;DHT22;50151;52.030;5.350;2024-01-16T11:58:00;2.80;99.90
63966;DHT22;50151;52.030;5.350;2024-01-16T12:00:32;2.70;99.90
63966;DHT22;50151;52.030;5.350;2024-01-16T12:03:03;2.80;99.90
63966;DHT22;50151;52.030;5.350;2024-01-16T12:05:30;2.90;99.90
63966;DHT22;50151;52.030;5.350;2024-01-16T12:07:58;2.80;99.90
63966;DHT22;50151;52.030;5.350;2024-01-16T12:10:25;3.00;99.90
63966;DHT22;50151;52.030;5.350;2024-01-16T12:12:58;3.00;99.90
63966;DHT22;50151;52.030;5.350;2024-01-16T12:15:30;3.10;99.90
63966;DHT22;50151;52.030;5.350;2024-01-16T12:18:00;3.00;99.90
63966;DHT22;50151;52.030;5.350;2024-01-16T12:20:30;3.10;99.90
63966;DHT22;50151;52.030;5.350;2024-01-16T12:23:05;3.10;99.90
63966;DHT22;50151;52.030;5.350;2024-01-16T12:25:33;2.90;99.90
63966;DHT22;50151;52.030;5.350;2024-01-16T12:28:21;2.90;99.90
63966;DHT22;50151;52.030;5.350;2024-01-16T12:30:51;2.80;99.90
63966;DHT22;50151;52.030;5.350;2024-01-16T12:33:24;2.60;99.90
63966;DHT22;50151;52.030;5.350;2024-01-16T12:36:01;2.60;99.90
63966;DHT22;50151;52.030;5.350;2024-01-16T12:38:29;2.60;99.90
63966;DHT22;50151;52.030;5.350;2024-01-16T12:40:57;2.60;99.90
63966;DHT22;50151;52.030;5.350;2024-01-16T12:43:24;2.70;99.90
63966;DHT22;50151;52.030;5.350;2024-01-16T12:45:55;2.90;99.90
63966;DHT22;50151;52.030;5.350;2024-01-16T12:48:26;2.90;99.90
63966;DHT22;50151;52.030;5.350;2024-01-16T12:51:01;2.80;99.90
63966;DHT22;50151;52.030;5.350;2024-01-16T12:53:31;2.70;99.90
63966;DHT22;50151;52.030;5.350;2024-01-16T12:56:03;2.90;99.90
63966;DHT22;50151;52.030;5.350;2024-01-16T12:58:35;3.10;99.90
63966;DHT22;50151;52.030;5.350;2024-01-16T13:01:43;3.40;99.90
63966;DHT22;50151;52.030;5.350;2024-01-16T13:04:16;3.30;99.90
63966;DHT22;50151;52.030;5.350;2024-01-16T13:06:46;3.70;99.90
63966;DHT22;50151;52.030;5.350;2024-01-16T13:09:15;4.10;99.90
63966;DHT22;50151;52.030;5.350;2024-01-16T13:11:56;4.10;99.90
63966;DHT22;50151;52.030;5.350;2024-01-16T13:14:25;4.20;99.90
63966;DHT22;50151;52.030;5.350;2024-01-16T13:16:53;4.30;99.90
63966;DHT22;50151;52.030;5.350;2024-01-16T13:19:23;4.20;99.90
63966;DHT22;50151;52.030;5.350;2024-01-16T13:21:51;4.40;99.90
63966;DHT22;50151;52.030;5.350;2024-01-16T13:24:18;4.70;99.90
63966;DHT22;50151;52.030;5.350;2024-01-16T13:26:49;4.90;99.90
63966;DHT22;50151;52.030;5.350;2024-01-16T13:29:16;4.80;99.90
63966;DHT22;50151;52.030;5.350;2024-01-16T13:31:43;4.80;99.90
63966;DHT22;50151;52.030;5.350;2024-01-16T13:34:10;4.70;99.90
63966;DHT22;50151;52.030;5.350;2024-01-16T13:36:38;4.60;99.90
63966;DHT22;50151;52.030;5.350;2024-01-16T13:39:25;4.60;99.90
63966;DHT22;50151;52.030;5.350;2024-01-16T13:41:52;5.10;99.90
63966;DHT22;50151;52.030;5.350;2024-01-16T13:44:19;5.20;99.90
63966;DHT22;50151;52.030;5.350;2024-01-16T13:46:46;5.10;99.90
63966;DHT22;50151;52.030;5.350;2024-01-16T13:49:31;5.00;99.90
63966;DHT22;50151;52.030;5.350;2024-01-16T13:52:00;4.90;99.90
63966;DHT22;50151;52.030;5.350;2024-01-16T13:54:27;5.00;99.90
63966;DHT22;50151;52.030;5.350;2024-01-16T13:56:53;5.40;99.90
63966;DHT22;50151;52.030;5.350;2024-01-16T13:59:33;5.00;99.90
63966;DHT22;50151;52.030;5.350;2024-01-16T14:02:01;5.00;99.90
63966;DHT22;50151;52.030;5.350;2024-01-16T14:04:29;5.00;99.90
63966;DHT22;50151;52.030;5.350;2024-01-16T14:06:55;5.10;99.90
63966;DHT22;50151;52.030;5.350;2024-01-16T14:09:39;5.20;99.90
63966;DHT22;50151;52.030;5.350;2024-01-16T14:12:09;4.90;99.90
63966;DHT22;50151;52.030;5.350;2024-01-16T14:14:36;5.10;99.90
63966;DHT22;50151;52.030;5.350;2024-01-16T14:17:05;5.00;99.90
63966;DHT22;50151;52.030;5.350;2024-01-16T14:19:34;5.30;99.90
63966;DHT22;50151;52.030;5.350;2024-01-16T14:22:02;5.10;99.90
63966;DHT22;50151;52.030;5.350;2024-01-16T14:24:29;5.10;99.90
63966;DHT22;50151;52.030;5.350;2024-01-16T14:26:56;5.10;99.90
63966;DHT22;50151;52.030;5.350;2024-01-16T14:29:23;5.40;99.90
63966;DHT22;50151;52.030;5.350;2024-01-16T14:31:50;5.30;99.90
63966;DHT22;50151;52.030;5.350;2024-01-16T14:34:18;5.40;99.90
63966;DHT22;50151;52.030;5.350;2024-01-16T14:36:46;5.60;99.90
63966;DHT22;50151;52.030;5.350;2024-01-16T14:39:13;5.50;99.90
63966;DHT22;50151;52.030;5.350;2024-01-16T14:41:44;5.70;99.90
63966;DHT22;50151;52.030;5.350;2024-01-16T14:44:10;5.60;99.90
63966;DHT22;50151;52.030;5.350;2024-01-16T14:46:37;5.50;99.90
63966;DHT22;50151;52.030;5.350;2024-01-16T14:49:04;5.50;99.90
63966;DHT22;50151;52.030;5.350;2024-01-16T14:51:32;5.30;99.90
63966;DHT22;50151;52.030;5.350;2024-01-16T14:53:59;5.20;99.90
63966;DHT22;50151;52.030;5.350;2024-01-16T14:56:28;5.00;99.90
63966;DHT22;50151;52.030;5.350;2024-01-16T14:58:57;5.00;99.90
63966;DHT22;50151;52.030;5.350;2024-01-16T15:01:24;5.10;99.90
63966;DHT22;50151;52.030;5.350;2024-01-16T15:03:50;5.20;99.90
63966;DHT22;50151;52.030;5.350;2024-01-16T15:06:17;4.60;99.90
63966;DHT22;50151;52.030;5.350;2024-01-16T15:08:44;4.40;99.90
63966;DHT22;50151;52.030;5.350;2024-01-16T15:11:11;4.20;99.90
63966;DHT22;50151;52.030;5.350;2024-01-16T15:13:38;4.00;99.90
63966;DHT22;50151;52.030;5.350;2024-01-16T15:16:04;3.90;99.90
63966;DHT22;50151;52.030;5.350;2024-01-16T15:18:31;3.80;99.90
63966;DHT22;50151;52.030;5.350;2024-01-16T15:20:59;3.50;99.90
63966;DHT22;50151;52.030;5.350;2024-01-16T15:23:26;3.60;99.90
63966;DHT22;50151;52.030;5.350;2024-01-16T15:25:54;3.70;99.90
63966;DHT22;50151;52.030;5.350;2024-01-16T15:28:21;3.70;99.90
63966;DHT22;50151;52.030;5.350;2024-01-16T15:30:48;3.30;99.90
63966;DHT22;50151;52.030;5.350;2024-01-16T15:33:15;3.20;99.90
63966;DHT22;50151;52.030;5.350;2024-01-16T15:35:42;3.40;99.90
63966;DHT22;50151;52.030;5.350;2024-01-16T15:38:08;3.40;99.90
63966;DHT22;50151;52.030;5.350;2024-01-16T15:40:37;3.30;99.90
63966;DHT22;50151;52.030;5.350;2024-01-16T15:43:04;3.40;99.90
63966;DHT22;50151;52.030;5.350;2024-01-16T15:45:31;3.20;99.90
63966;DHT22;50151;52.030;5.350;2024-01-16T15:47:58;3.20;99.90
63966;DHT22;50151;52.030;5.350;2024-01-16T15:50:25;3.20;99.90
63966;DHT22;50151;52.030;5.350;2024-01-16T15:52:53;3.20;99.90
63966;DHT22;50151;52.030;5.350;2024-01-16T15:55:20;3.20;99.90
63966;DHT22;50151;52.030;5.350;2024-01-16T15:57:47;3.00;99.90
63966;DHT22;50151;52.030;5.350;2024-01-16T16:00:14;3.00;99.90
63966;DHT22;50151;52.030;5.350;2024-01-16T16:02:42;2.90;99.90
63966;DHT22;50151;52.030;5.350;2024-01-16T16:05:12;2.60;99.90
63966;DHT22;50151;52.030;5.350;2024-01-16T16:07:39;2.70;99.90
63966;DHT22;50151;52.030;5.350;2024-01-16T16:10:06;2.60;99.90
63966;DHT22;50151;52.030;5.350;2024-01-16T16:12:33;2.50;99.90
63966;DHT22;50151;52.030;5.350;2024-01-16T16:15:00;2.50;99.90
63966;DHT22;50151;52.030;5.350;2024-01-16T16:17:27;2.50;99.90
63966;DHT22;50151;52.030;5.350;2024-01-16T16:19:54;2.50;99.90
63966;DHT22;50151;52.030;5.350;2024-01-16T16:22:21;2.40;99.90
63966;DHT22;50151;52.030;5.350;2024-01-16T16:24:47;2.40;99.90
63966;DHT22;50151;52.030;5.350;2024-01-16T16:27:27;2.40;99.90
63966;DHT22;50151;52.030;5.350;2024-01-16T16:29:56;2.40;99.90
63966;DHT22;50151;52.030;5.350;2024-01-16T16:32:23;2.30;99.90
63966;DHT22;50151;52.030;5.350;2024-01-16T16:34:50;2.20;99.90
63966;DHT22;50151;52.030;5.350;2024-01-16T16:37:17;2.20;99.90
63966;DHT22;50151;52.030;5.350;2024-01-16T16:39:44;2.10;99.90
63966;DHT22;50151;52.030;5.350;2024-01-16T16:42:11;2.10;99.90
63966;DHT22;50151;52.030;5.350;2024-01-16T16:44:39;2.00;99.90
63966;DHT22;50151;52.030;5.350;2024-01-16T16:47:06;2.10;99.90
63966;DHT22;50151;52.030;5.350;2024-01-16T16:49:35;2.00;99.90
63966;DHT22;50151;52.030;5.350;2024-01-16T16:52:03;2.00;99.90
63966;DHT22;50151;52.030;5.350;2024-01-16T16:54:30;1.90;99.90
63966;DHT22;50151;52.030;5.350;2024-01-16T16:56:57;1.90;99.90
63966;DHT22;50151;52.030;5.350;2024-01-16T16:59:24;1.90;99.90
63966;DHT22;50151;52.030;5.350;2024-01-16T17:01:51;1.90;99.90
63966;DHT22;50151;52.030;5.350;2024-01-16T17:04:19;1.90;99.90
63966;DHT22;50151;52.030;5.350;2024-01-16T17:06:46;2.00;99.90
63966;DHT22;50151;52.030;5.350;2024-01-16T17:09:13;1.80;99.90
63966;DHT22;50151;52.030;5.350;2024-01-16T17:11:46;1.90;99.90
63966;DHT22;50151;52.030;5.350;2024-01-16T17:14:13;1.90;99.90
63966;DHT22;50151;52.030;5.350;2024-01-16T17:16:41;1.80;99.90
63966;DHT22;50151;52.030;5.350;2024-01-16T17:19:08;1.80;99.90
63966;DHT22;50151;52.030;5.350;2024-01-16T17:21:39;1.80;99.90
63966;DHT22;50151;52.030;5.350;2024-01-16T17:24:06;1.70;99.90
63966;DHT22;50151;52.030;5.350;2024-01-16T17:26:34;1.60;99.90
63966;DHT22;50151;52.030;5.350;2024-01-16T17:29:01;1.70;99.90
63966;DHT22;50151;52.030;5.350;2024-01-16T17:31:28;1.80;99.90
63966;DHT22;50151;52.030;5.350;2024-01-16T17:33:56;1.70;99.90
63966;DHT22;50151;52.030;5.350;2024-01-16T17:36:24;1.70;99.90
63966;DHT22;50151;52.030;5.350;2024-01-16T17:38:51;1.70;99.90
63966;DHT22;50151;52.030;5.350;2024-01-16T17:41:22;1.70;99.90
63966;DHT22;50151;52.030;5.350;2024-01-16T17:43:53;1.70;99.90
63966;DHT22;50151;52.030;5.350;2024-01-16T17:46:20;1.60;99.90
63966;DHT22;50151;52.030;5.350;2024-01-16T17:48:48;1.60;99.90